Time;durP1;ratioP1;P1;durP2;ratioP2;P2;SDS_P1;SDS_P2;PMS_P1;PMS_P2;Temp;Humidity;BMP_temperature;BMP_pressure;BME280_temperature;BME280_humidity;BME280_pressure;Samples;Min_cycle;Max_cycle;Signal;HPM_P1;HPM_P2
2021/03/30 00:00:39;;;;;;;9.43;6.90;;;16.00;35.00;;;;;;2111249;28;20563;-58
2021/03/30 00:02:00;;;;;;;10.20;7.53;;;15.90;35.10;;;;;;2112253;28;20077;-58
2021/03/30 00:03:21;;;;;;;10.32;7.18;;;15.90;35.10;;;;;;2111344;28;20139;-58
2021/03/30 00:04:42;;;;;;;9.43;6.80;;;15.90;35.10;;;;;;2113706;28;20338;-59
2021/03/30 00:06:03;;;;;;;9.45;6.40;;;15.90;35.10;;;;;;2113500;28;20470;-59
2021/03/30 00:07:24;;;;;;;8.75;7.25;;;15.90;35.20;;;;;;2107410;28;20035;-57
2021/03/30 00:08:45;;;;;;;7.95;6.30;;;15.90;35.30;;;;;;2111757;28;20040;-58
2021/03/30 00:10:10;;;;;;;8.85;6.72;;;15.80;35.20;;;;;;2112659;28;20027;-57
2021/03/30 00:11:31;;;;;;;11.77;6.95;;;15.80;35.30;;;;;;2109257;28;20074;-58
2021/03/30 00:12:51;;;;;;;10.02;6.90;;;15.80;35.50;;;;;;2111747;28;20124;-58
2021/03/30 00:14:12;;;;;;;9.82;7.20;;;15.80;35.60;;;;;;2111121;28;20054;-58
2021/03/30 00:15:33;;;;;;;10.05;7.43;;;15.70;35.60;;;;;;2112531;28;20859;-58
2021/03/30 00:16:54;;;;;;;9.40;6.47;;;15.70;35.70;;;;;;2113754;28;20115;-59
2021/03/30 00:18:16;;;;;;;10.32;6.70;;;15.70;35.90;;;;;;2109767;28;20452;-56
2021/03/30 00:19:37;;;;;;;12.80;6.88;;;15.70;36.10;;;;;;2112015;28;20422;-57
2021/03/30 00:20:57;;;;;;;11.07;6.93;;;15.60;36.30;;;;;;2113234;28;20015;-57
2021/03/30 00:22:18;;;;;;;9.63;6.78;;;15.60;36.30;;;;;;2113153;28;20023;-58
2021/03/30 00:23:39;;;;;;;8.00;6.57;;;15.60;36.30;;;;;;2110653;28;20035;-58
2021/03/30 00:25:00;;;;;;;8.43;6.32;;;15.60;36.40;;;;;;2113173;28;20027;-58
2021/03/30 00:26:21;;;;;;;9.80;7.22;;;15.60;36.60;;;;;;2108231;28;20350;-58
2021/03/30 00:27:42;;;;;;;9.57;6.60;;;15.60;36.70;;;;;;2104158;28;20023;-58
2021/03/30 00:29:04;;;;;;;9.68;6.55;;;15.50;36.60;;;;;;2108425;28;20122;-58
2021/03/30 00:30:25;;;;;;;8.25;5.97;;;15.50;36.70;;;;;;2113019;28;20742;-57
2021/03/30 00:31:46;;;;;;;9.50;6.60;;;15.50;36.70;;;;;;2113330;28;20028;-58
2021/03/30 00:33:07;;;;;;;7.18;5.60;;;15.50;36.90;;;;;;2111877;28;20061;-57
2021/03/30 00:34:28;;;;;;;10.45;7.10;;;15.40;36.90;;;;;;2110496;28;20028;-58
2021/03/30 00:35:49;;;;;;;8.32;5.88;;;15.40;36.90;;;;;;2112902;28;20047;-58
2021/03/30 00:37:10;;;;;;;9.05;5.93;;;15.30;36.80;;;;;;2113160;28;20077;-56
2021/03/30 00:38:31;;;;;;;9.43;6.82;;;15.30;37.00;;;;;;2112685;28;20028;-58
2021/03/30 00:39:52;;;;;;;9.80;6.82;;;15.30;37.10;;;;;;2104481;28;20030;-57
2021/03/30 00:41:13;;;;;;;9.23;6.60;;;15.30;37.20;;;;;;2110716;28;20031;-57
2021/03/30 00:42:34;;;;;;;11.10;7.13;;;15.30;37.30;;;;;;2108880;28;20062;-57
2021/03/30 00:43:54;;;;;;;11.32;7.18;;;15.30;37.40;;;;;;2113315;28;20051;-57
2021/03/30 00:45:15;;;;;;;10.00;6.55;;;15.20;38.00;;;;;;2111162;28;20406;-58
2021/03/30 00:46:39;;;;;;;9.50;6.90;;;15.20;37.60;;;;;;2111163;28;20088;-58
2021/03/30 00:48:00;;;;;;;8.50;6.70;;;15.20;37.80;;;;;;2112530;28;20038;-58
2021/03/30 00:49:21;;;;;;;9.25;6.43;;;15.10;37.80;;;;;;2110061;28;20118;-57
2021/03/30 00:50:42;;;;;;;12.70;6.80;;;15.10;37.80;;;;;;2108702;28;20031;-57
2021/03/30 00:52:03;;;;;;;9.23;6.43;;;15.10;37.80;;;;;;2113051;28;20035;-56
2021/03/30 00:53:24;;;;;;;7.80;6.25;;;15.10;38.00;;;;;;2111004;28;20060;-57
2021/03/30 00:54:46;;;;;;;10.40;5.70;;;15.00;37.90;;;;;;2113146;28;20023;-58
2021/03/30 00:56:07;;;;;;;7.45;5.05;;;15.00;38.00;;;;;;2111271;28;20694;-58
2021/03/30 00:57:28;;;;;;;9.13;5.55;;;15.00;37.90;;;;;;2108620;28;20050;-58
2021/03/30 00:58:51;;;;;;;7.50;5.60;;;14.90;37.90;;;;;;2112824;28;20031;-56
2021/03/30 01:00:13;;;;;;;7.05;5.45;;;14.90;38.10;;;;;;2113130;28;20035;-58
2021/03/30 01:01:35;;;;;;;9.07;5.75;;;14.80;38.10;;;;;;2110928;28;20023;-58
2021/03/30 01:02:55;;;;;;;8.85;5.80;;;14.80;38.10;;;;;;2110678;28;20042;-58
2021/03/30 01:04:16;;;;;;;6.45;4.88;;;14.80;38.10;;;;;;2107299;28;20046;-58
2021/03/30 01:05:37;;;;;;;6.97;4.85;;;14.80;38.10;;;;;;2100939;28;20031;-58
2021/03/30 01:06:58;;;;;;;7.35;4.55;;;14.80;38.10;;;;;;2101738;28;20043;-58
2021/03/30 01:08:32;;;;;;;6.05;4.22;;;14.80;37.90;;;;;;2098458;28;20043;-58
2021/03/30 01:10:34;;;;;;;7.95;4.28;;;14.70;38.10;;;;;;2110484;28;20079;-58
2021/03/30 01:12:34;;;;;;;4.95;4.10;;;14.70;38.00;;;;;;2112540;28;20027;-59
2021/03/30 01:14:04;;;;;;;5.45;3.70;;;14.70;37.90;;;;;;2103905;28;20028;-57
2021/03/30 01:15:52;;;;;;;6.22;4.35;;;14.70;37.50;;;;;;2109188;28;20038;-58
2021/03/30 01:17:33;;;;;;;5.70;3.78;;;14.70;37.70;;;;;;2103195;28;20028;-57
2021/03/30 01:19:09;;;;;;;6.82;3.40;;;14.70;37.50;;;;;;2099835;28;20031;-58
2021/03/30 01:20:55;;;;;;;4.60;3.42;;;14.70;37.40;;;;;;2109976;28;20035;-58
2021/03/30 01:22:22;;;;;;;6.18;3.33;;;14.70;37.70;;;;;;2111218;28;20016;-58
2021/03/30 01:23:55;;;;;;;6.18;3.53;;;14.70;37.70;;;;;;2111588;28;20074;-58
2021/03/30 01:25:18;;;;;;;4.93;3.53;;;14.70;37.70;;;;;;2111605;28;20408;-58
2021/03/30 01:26:59;;;;;;;5.85;3.70;;;14.70;37.50;;;;;;2108632;28;20059;-58
2021/03/30 01:28:42;;;;;;;5.90;3.70;;;14.70;37.70;;;;;;2109063;28;20024;-58
2021/03/30 01:30:05;;;;;;;6.10;3.95;;;14.70;37.70;;;;;;2103517;28;20042;-58
2021/03/30 01:31:30;;;;;;;5.38;3.55;;;14.70;37.50;;;;;;2094451;28;20036;-58
2021/03/30 01:32:58;;;;;;;7.28;3.53;;;14.70;38.10;;;;;;2096794;28;20069;-58
2021/03/30 01:34:21;;;;;;;5.47;3.33;;;14.70;37.50;;;;;;2112009;28;20530;-58
2021/03/30 01:35:43;;;;;;;7.57;4.10;;;14.70;37.50;;;;;;2111845;28;20055;-58
2021/03/30 01:37:04;;;;;;;5.32;3.80;;;14.70;37.60;;;;;;2113165;28;20032;-58
2021/03/30 01:38:26;;;;;;;6.55;4.00;;;14.70;37.60;;;;;;2109084;28;20023;-58
2021/03/30 01:39:51;;;;;;;5.75;3.65;;;14.70;37.70;;;;;;2104395;28;20031;-59
2021/03/30 01:41:13;;;;;;;7.28;3.67;;;14.60;37.70;;;;;;2108273;28;20016;-58
2021/03/30 01:42:36;;;;;;;5.43;3.42;;;14.60;37.60;;;;;;2108059;28;20027;-58
2021/03/30 01:43:57;;;;;;;6.68;4.13;;;14.60;37.50;;;;;;2103024;28;20067;-57
2021/03/30 01:45:20;;;;;;;7.82;4.10;;;14.60;37.50;;;;;;2105704;28;20024;-57
2021/03/30 01:46:42;;;;;;;4.70;3.40;;;14.60;37.60;;;;;;2111421;28;20555;-57
2021/03/30 01:48:04;;;;;;;6.25;3.80;;;14.60;37.50;;;;;;2111914;28;20106;-57
2021/03/30 01:49:27;;;;;;;4.72;3.60;;;14.60;37.60;;;;;;2108541;28;20028;-57
2021/03/30 01:50:48;;;;;;;5.75;3.95;;;14.60;37.60;;;;;;2112456;28;20503;-59
2021/03/30 01:52:13;;;;;;;5.40;3.80;;;14.50;37.60;;;;;;2112772;28;20035;-57
2021/03/30 01:53:35;;;;;;;7.25;3.70;;;14.50;37.60;;;;;;2109741;28;20091;-58
2021/03/30 01:54:57;;;;;;;5.53;3.90;;;14.50;37.60;;;;;;2111278;28;20034;-58
2021/03/30 01:56:19;;;;;;;5.22;3.30;;;14.50;37.90;;;;;;2112293;28;20023;-57
2021/03/30 01:57:45;;;;;;;5.68;3.50;;;14.50;38.10;;;;;;2113343;28;20048;-57
2021/03/30 01:59:08;;;;;;;5.63;3.70;;;14.50;38.20;;;;;;2095010;28;20032;-57
2021/03/30 02:00:33;;;;;;;6.80;3.50;;;14.60;38.10;;;;;;2102112;28;20034;-57
2021/03/30 02:01:55;;;;;;;6.18;3.60;;;14.50;38.00;;;;;;2102448;28;20020;-58
2021/03/30 02:03:18;;;;;;;5.80;3.90;;;14.50;37.90;;;;;;2102649;28;20024;-57
2021/03/30 02:04:40;;;;;;;5.28;3.53;;;14.50;37.90;;;;;;2101775;28;20761;-57
2021/03/30 02:06:05;;;;;;;4.82;3.63;;;14.50;37.90;;;;;;2108631;28;20035;-58
2021/03/30 02:07:28;;;;;;;7.18;3.88;;;14.50;38.10;;;;;;2112412;28;20024;-57
2021/03/30 02:08:49;;;;;;;6.57;3.80;;;14.50;37.90;;;;;;2112961;28;20036;-57
2021/03/30 02:10:18;;;;;;;5.45;3.63;;;14.40;37.90;;;;;;2108406;28;20031;-57
2021/03/30 02:11:46;;;;;;;5.22;3.58;;;14.40;38.10;;;;;;2108827;28;20036;-57
2021/03/30 02:13:09;;;;;;;5.78;3.35;;;14.40;38.10;;;;;;2111283;28;20035;-58
2021/03/30 02:14:33;;;;;;;5.90;3.63;;;14.40;38.20;;;;;;2109328;28;20063;-58
2021/03/30 02:16:02;;;;;;;6.85;4.57;;;14.40;38.30;;;;;;2112736;28;20473;-58
2021/03/30 02:17:52;;;;;;;7.20;3.83;;;14.30;38.30;;;;;;2112537;28;20035;-59
2021/03/30 02:19:20;;;;;;;5.32;3.63;;;14.30;38.80;;;;;;2112759;28;20258;-58
2021/03/30 02:20:50;;;;;;;7.32;4.00;;;14.30;38.40;;;;;;2100166;28;20363;-59
2021/03/30 02:22:32;;;;;;;5.10;3.35;;;14.20;38.60;;;;;;2112366;28;20063;-57
2021/03/30 02:23:55;;;;;;;6.53;3.92;;;14.20;38.90;;;;;;2110324;28;20089;-58
2021/03/30 02:25:21;;;;;;;5.53;3.80;;;14.20;38.60;;;;;;2110475;28;20020;-58
2021/03/30 02:26:46;;;;;;;5.70;3.85;;;14.20;38.80;;;;;;2111379;28;20024;-57
2021/03/30 02:28:12;;;;;;;4.72;3.97;;;14.10;38.80;;;;;;2112807;28;20478;-58
2021/03/30 02:29:35;;;;;;;5.55;3.85;;;14.10;38.90;;;;;;2110026;28;20092;-57
2021/03/30 02:30:56;;;;;;;4.53;3.72;;;14.00;38.80;;;;;;2103727;28;20035;-56
2021/03/30 02:32:18;;;;;;;5.95;3.83;;;14.00;38.70;;;;;;2103523;28;20459;-57
2021/03/30 02:33:40;;;;;;;5.18;3.88;;;13.90;38.70;;;;;;2112568;28;20088;-56
2021/03/30 02:35:05;;;;;;;5.03;3.80;;;13.90;38.80;;;;;;2110650;28;20050;-57
2021/03/30 02:36:27;;;;;;;5.68;3.50;;;13.90;38.80;;;;;;2109550;28;20070;-57
2021/03/30 02:37:50;;;;;;;4.35;3.67;;;13.90;38.80;;;;;;2109385;28;20024;-57
2021/03/30 02:39:14;;;;;;;5.78;4.30;;;13.80;39.00;;;;;;2111312;28;20473;-56
2021/03/30 02:40:36;;;;;;;6.05;3.58;;;13.80;39.20;;;;;;2112020;28;20441;-58
2021/03/30 02:42:00;;;;;;;4.47;4.03;;;13.80;39.20;;;;;;2112149;28;20023;-57
2021/03/30 02:43:23;;;;;;;5.53;3.95;;;13.80;39.30;;;;;;2112033;28;20114;-55
2021/03/30 02:44:45;;;;;;;5.45;3.70;;;13.70;39.40;;;;;;2110937;28;20015;-58
2021/03/30 02:46:08;;;;;;;5.03;3.53;;;13.70;39.40;;;;;;2110299;28;20031;-57
2021/03/30 02:47:29;;;;;;;5.35;3.85;;;13.70;39.50;;;;;;2107647;28;21132;-57
2021/03/30 02:48:51;;;;;;;5.88;3.97;;;13.70;39.60;;;;;;2112419;28;20035;-58
2021/03/30 02:50:13;;;;;;;5.28;3.90;;;13.60;39.70;;;;;;2111387;28;20163;-58
2021/03/30 02:51:35;;;;;;;4.15;3.65;;;13.60;39.80;;;;;;2110933;28;20069;-58
2021/03/30 02:52:57;;;;;;;5.22;3.55;;;13.60;39.90;;;;;;2111699;28;20082;-55
2021/03/30 02:54:19;;;;;;;6.35;3.63;;;13.60;40.10;;;;;;2107194;28;20023;-57
2021/03/30 02:55:41;;;;;;;6.25;3.78;;;13.60;40.00;;;;;;2110245;28;20637;-57
2021/03/30 02:57:03;;;;;;;5.93;4.07;;;13.50;39.90;;;;;;2112807;28;20373;-58
2021/03/30 02:58:24;;;;;;;6.32;3.95;;;13.50;40.00;;;;;;2106713;28;20495;-58
2021/03/30 02:59:46;;;;;;;6.85;3.88;;;13.50;40.00;;;;;;2111844;28;20031;-57
2021/03/30 03:01:08;;;;;;;6.70;3.65;;;13.40;40.10;;;;;;2105088;28;20498;-58
2021/03/30 03:02:31;;;;;;;4.75;3.58;;;13.40;40.10;;;;;;2104120;28;20046;-58
2021/03/30 03:03:53;;;;;;;5.97;3.72;;;13.40;40.20;;;;;;2111565;28;20027;-58
2021/03/30 03:05:14;;;;;;;6.47;3.78;;;13.40;40.20;;;;;;2112188;28;20036;-57
2021/03/30 03:06:36;;;;;;;6.90;3.78;;;13.40;40.30;;;;;;2109513;28;20063;-58
2021/03/30 03:07:58;;;;;;;4.55;3.75;;;13.30;40.40;;;;;;2114729;28;20099;-58
2021/03/30 03:09:19;;;;;;;5.10;4.03;;;13.30;40.50;;;;;;2112130;28;20043;-57
2021/03/30 03:10:42;;;;;;;6.57;4.10;;;13.30;40.50;;;;;;2114516;28;20096;-57
2021/03/30 03:12:05;;;;;;;4.25;3.78;;;13.30;40.60;;;;;;2104537;28;20067;-57
2021/03/30 03:13:27;;;;;;;6.07;3.80;;;13.30;40.80;;;;;;2110316;28;20027;-56
2021/03/30 03:14:51;;;;;;;5.85;4.07;;;13.20;40.80;;;;;;2112331;28;20101;-57
2021/03/30 03:16:12;;;;;;;5.20;3.90;;;13.20;40.90;;;;;;2113234;28;20160;-58
2021/03/30 03:17:35;;;;;;;5.75;3.67;;;13.20;40.80;;;;;;2109797;28;20028;-56
2021/03/30 03:18:56;;;;;;;6.60;4.07;;;13.20;41.00;;;;;;2111376;28;20474;-58
2021/03/30 03:20:18;;;;;;;4.97;3.97;;;13.20;41.10;;;;;;2113601;28;20059;-57
2021/03/30 03:21:39;;;;;;;6.50;3.90;;;13.10;41.00;;;;;;2112379;28;20100;-56
2021/03/30 03:23:01;;;;;;;5.47;3.75;;;13.10;41.00;;;;;;2112969;28;20527;-56
2021/03/30 03:24:22;;;;;;;5.43;3.70;;;13.10;41.10;;;;;;2114021;28;20028;-57
2021/03/30 03:25:46;;;;;;;5.80;3.50;;;13.00;41.10;;;;;;2114064;28;20031;-56
2021/03/30 03:27:08;;;;;;;4.32;3.42;;;13.00;41.30;;;;;;2113982;28;20027;-57
2021/03/30 03:28:29;;;;;;;8.63;4.10;;;13.00;41.10;;;;;;2111585;28;20711;-57
2021/03/30 03:29:50;;;;;;;6.88;4.20;;;13.00;41.10;;;;;;2113095;28;20159;-57
2021/03/30 03:31:12;;;;;;;5.00;3.42;;;13.00;41.20;;;;;;2113318;28;20040;-57
2021/03/30 03:32:34;;;;;;;6.80;3.67;;;12.90;41.30;;;;;;2108940;28;20181;-57
2021/03/30 03:34:01;;;;;;;6.32;3.78;;;12.90;41.40;;;;;;2113514;28;20362;-57
2021/03/30 03:35:22;;;;;;;5.63;4.15;;;12.90;41.60;;;;;;2108514;28;20032;-58
2021/03/30 03:36:45;;;;;;;8.73;4.00;;;12.90;41.50;;;;;;2102028;28;20117;-57
2021/03/30 03:38:06;;;;;;;6.47;3.97;;;12.90;41.70;;;;;;2111482;28;20030;-56
2021/03/30 03:39:27;;;;;;;7.68;4.28;;;12.80;41.60;;;;;;2112539;28;20019;-56
2021/03/30 03:40:48;;;;;;;5.47;3.97;;;12.80;41.60;;;;;;2113455;28;20032;-57
2021/03/30 03:42:09;;;;;;;7.07;3.95;;;12.80;41.70;;;;;;2112689;28;20036;-57
2021/03/30 03:43:30;;;;;;;7.90;3.85;;;12.80;41.70;;;;;;2112530;28;20506;-58
2021/03/30 03:44:51;;;;;;;5.70;3.97;;;12.70;41.70;;;;;;2111780;28;20023;-57
2021/03/30 03:46:16;;;;;;;5.85;4.10;;;12.70;41.80;;;;;;2112150;28;20067;-57
2021/03/30 03:47:37;;;;;;;8.00;4.20;;;12.70;42.00;;;;;;2112900;28;20938;-56
2021/03/30 03:48:58;;;;;;;7.15;3.83;;;12.70;41.80;;;;;;2111917;28;20019;-56
2021/03/30 03:50:20;;;;;;;5.53;3.67;;;12.70;42.40;;;;;;2108326;28;20044;-57
2021/03/30 03:51:46;;;;;;;7.05;4.47;;;12.70;41.90;;;;;;2113836;28;20061;-55
2021/03/30 03:53:11;;;;;;;6.07;3.88;;;12.60;42.30;;;;;;2111877;28;20039;-57
2021/03/30 03:54:34;;;;;;;4.75;3.90;;;12.60;42.40;;;;;;2113173;28;20032;-57
2021/03/30 03:55:57;;;;;;;6.13;4.10;;;12.60;42.40;;;;;;2112535;28;20070;-55
2021/03/30 03:57:29;;;;;;;7.68;3.90;;;12.60;42.40;;;;;;2113440;28;20028;-57
2021/03/30 03:58:55;;;;;;;5.80;4.13;;;12.60;42.80;;;;;;2111416;28;20031;-57
2021/03/30 04:00:17;;;;;;;7.45;4.05;;;12.60;42.60;;;;;;2112662;28;20656;-56
2021/03/30 04:01:47;;;;;;;9.35;4.45;;;12.60;42.50;;;;;;2110592;28;20028;-57
2021/03/30 04:03:27;;;;;;;12.70;4.60;;;12.60;42.60;;;;;;2110904;28;20610;-57
2021/03/30 04:04:57;;;;;;;5.22;3.78;;;12.60;43.00;;;;;;2112782;28;20107;-55
2021/03/30 04:06:22;;;;;;;5.38;4.28;;;12.60;42.70;;;;;;2112786;28;20367;-58
2021/03/30 04:07:55;;;;;;;7.38;3.95;;;12.60;42.60;;;;;;2111113;28;20027;-57
2021/03/30 04:09:18;;;;;;;9.82;4.55;;;12.60;42.80;;;;;;2113243;28;20030;-57
2021/03/30 04:10:45;;;;;;;4.68;3.80;;;12.60;42.70;;;;;;2110484;28;20040;-55
2021/03/30 04:12:08;;;;;;;8.35;4.43;;;12.50;42.80;;;;;;2112937;28;20043;-57
2021/03/30 04:13:31;;;;;;;7.15;4.38;;;12.50;42.80;;;;;;2108929;28;20070;-56
2021/03/30 04:14:53;;;;;;;7.55;3.80;;;12.50;42.70;;;;;;2111650;28;20067;-57
2021/03/30 04:16:14;;;;;;;5.93;4.13;;;12.50;42.70;;;;;;2114053;28;20084;-58
2021/03/30 04:17:35;;;;;;;7.07;4.32;;;12.50;42.80;;;;;;2108799;28;20063;-57
2021/03/30 04:18:56;;;;;;;6.95;3.97;;;12.50;43.30;;;;;;2103239;28;20062;-57
2021/03/30 04:20:19;;;;;;;5.75;3.80;;;12.50;42.80;;;;;;2110125;28;20374;-57
2021/03/30 04:21:40;;;;;;;8.75;4.30;;;12.40;43.00;;;;;;2109390;28;20027;-56
2021/03/30 04:23:01;;;;;;;7.05;4.22;;;12.40;42.80;;;;;;2112984;28;20627;-57
2021/03/30 04:24:22;;;;;;;6.63;4.00;;;12.40;42.90;;;;;;2113296;28;20429;-57
2021/03/30 04:25:44;;;;;;;10.05;4.22;;;12.40;43.00;;;;;;2113607;28;20031;-57
2021/03/30 04:27:11;;;;;;;7.97;4.13;;;12.40;43.00;;;;;;2114744;28;20066;-57
2021/03/30 04:28:32;;;;;;;7.15;4.20;;;12.40;43.30;;;;;;2108845;28;20043;-57
2021/03/30 04:29:52;;;;;;;6.82;4.47;;;12.40;43.10;;;;;;2110690;28;20042;-57
2021/03/30 04:31:13;;;;;;;5.95;4.15;;;12.30;43.00;;;;;;2112003;28;20071;-57
2021/03/30 04:32:34;;;;;;;9.55;4.60;;;12.30;43.10;;;;;;2109336;28;20031;-57
2021/03/30 04:33:55;;;;;;;8.10;4.25;;;12.30;43.20;;;;;;2102947;28;20081;-56
2021/03/30 04:35:16;;;;;;;7.35;4.25;;;12.30;43.30;;;;;;2109723;28;20085;-57
2021/03/30 04:36:37;;;;;;;5.47;4.05;;;12.20;43.40;;;;;;2108925;28;20093;-58
2021/03/30 04:37:58;;;;;;;5.60;4.25;;;12.30;43.50;;;;;;2112464;28;20024;-57
2021/03/30 04:39:19;;;;;;;6.93;4.15;;;12.20;43.40;;;;;;2111824;28;20035;-57
2021/03/30 04:40:40;;;;;;;8.00;4.47;;;12.20;43.40;;;;;;2108819;28;20040;-57
2021/03/30 04:42:01;;;;;;;8.38;4.45;;;12.20;43.50;;;;;;2112111;28;20031;-57
2021/03/30 04:43:23;;;;;;;9.07;4.53;;;12.20;43.60;;;;;;2108934;28;20038;-57
2021/03/30 04:44:44;;;;;;;5.88;4.10;;;12.20;43.60;;;;;;2110316;28;20088;-57
2021/03/30 04:46:09;;;;;;;12.23;4.65;;;12.20;43.70;;;;;;2112224;28;20431;-56
2021/03/30 04:47:30;;;;;;;5.65;4.05;;;12.10;43.80;;;;;;2107734;28;20102;-57
2021/03/30 04:48:51;;;;;;;8.23;4.10;;;12.10;43.70;;;;;;2109796;28;20102;-58
2021/03/30 04:50:12;;;;;;;10.05;4.50;;;12.10;43.80;;;;;;2110975;28;20322;-56
2021/03/30 04:51:33;;;;;;;8.95;4.65;;;12.10;43.80;;;;;;2112963;28;20403;-57
2021/03/30 04:52:54;;;;;;;8.45;4.78;;;12.10;43.70;;;;;;2111205;28;20463;-58
2021/03/30 04:54:15;;;;;;;10.68;4.80;;;12.10;43.90;;;;;;2112092;28;20059;-57
2021/03/30 04:55:36;;;;;;;7.55;4.20;;;12.10;43.90;;;;;;2111976;28;20381;-55
2021/03/30 04:56:57;;;;;;;7.20;4.60;;;12.10;43.90;;;;;;2112574;28;20236;-55
2021/03/30 04:58:18;;;;;;;8.77;4.50;;;12.00;43.80;;;;;;2112249;28;20027;-57
2021/03/30 04:59:39;;;;;;;8.70;4.50;;;12.10;44.00;;;;;;2111562;28;20326;-58
2021/03/30 05:01:00;;;;;;;7.50;4.93;;;12.00;44.10;;;;;;2111589;28;20069;-57
2021/03/30 05:02:20;;;;;;;7.32;4.72;;;12.10;44.30;;;;;;2111840;28;20222;-57
2021/03/30 05:03:42;;;;;;;8.80;5.00;;;12.00;44.30;;;;;;2112075;28;20027;-57
2021/03/30 05:05:03;;;;;;;9.98;4.70;;;12.00;44.50;;;;;;2112747;28;20375;-58
2021/03/30 05:06:24;;;;;;;9.00;4.78;;;12.00;44.50;;;;;;2107305;28;20136;-57
2021/03/30 05:07:45;;;;;;;5.43;4.32;;;12.00;44.50;;;;;;2113264;28;20115;-56
2021/03/30 05:09:06;;;;;;;9.23;4.57;;;12.00;44.50;;;;;;2113289;28;20050;-57
2021/03/30 05:10:27;;;;;;;8.57;4.32;;;12.00;44.40;;;;;;2098961;28;20142;-56
2021/03/30 05:11:48;;;;;;;9.00;4.70;;;12.00;44.40;;;;;;2110466;28;20036;-58
2021/03/30 05:13:09;;;;;;;7.28;4.75;;;12.00;44.40;;;;;;2111170;28;20171;-57
2021/03/30 05:14:29;;;;;;;7.40;4.55;;;12.00;44.40;;;;;;2108130;28;20032;-58
2021/03/30 05:15:51;;;;;;;7.20;4.57;;;12.00;44.50;;;;;;2112808;28;20744;-56
2021/03/30 05:17:12;;;;;;;9.30;4.40;;;12.00;44.60;;;;;;2111344;28;20181;-58
2021/03/30 05:18:33;;;;;;;6.15;4.45;;;11.90;44.60;;;;;;2110308;28;20044;-57
2021/03/30 05:19:54;;;;;;;7.50;4.35;;;11.90;44.80;;;;;;2113893;27;20034;-57
2021/03/30 05:21:17;;;;;;;9.32;4.80;;;11.90;45.00;;;;;;2112787;28;20028;-56
2021/03/30 05:22:38;;;;;;;6.75;4.50;;;11.90;44.90;;;;;;2112065;28;20028;-57
2021/03/30 05:24:00;;;;;;;5.88;4.50;;;11.90;44.70;;;;;;2110815;28;20032;-57
2021/03/30 05:25:21;;;;;;;7.80;4.57;;;11.90;44.70;;;;;;2112253;28;20072;-57
2021/03/30 05:26:42;;;;;;;5.35;4.13;;;11.90;44.70;;;;;;2112574;28;20040;-57
2021/03/30 05:28:04;;;;;;;7.88;4.60;;;11.90;44.80;;;;;;2111827;28;20043;-57
2021/03/30 05:29:25;;;;;;;9.25;4.63;;;11.90;45.00;;;;;;2101746;28;20214;-56
2021/03/30 05:30:46;;;;;;;7.57;4.78;;;11.90;44.90;;;;;;2109157;28;20027;-57
2021/03/30 05:32:07;;;;;;;8.82;4.68;;;11.90;44.90;;;;;;2111233;28;20019;-57
2021/03/30 05:33:28;;;;;;;9.15;4.80;;;11.80;44.90;;;;;;2109054;28;20031;-57
2021/03/30 05:34:50;;;;;;;7.65;4.68;;;11.80;45.00;;;;;;2113244;28;20019;-57
2021/03/30 05:36:11;;;;;;;9.90;5.20;;;11.80;45.10;;;;;;2113213;28;20031;-57
2021/03/30 05:37:32;;;;;;;8.73;4.93;;;11.80;45.10;;;;;;2111757;28;20020;-55
2021/03/30 05:38:53;;;;;;;11.80;5.50;;;11.80;45.20;;;;;;2103663;28;20075;-58
2021/03/30 05:40:16;;;;;;;5.70;4.18;;;11.80;45.20;;;;;;2108378;28;20027;-58
2021/03/30 05:41:39;;;;;;;8.15;4.20;;;11.80;45.30;;;;;;2108593;28;20424;-57
2021/03/30 05:43:00;;;;;;;8.50;4.13;;;11.80;45.30;;;;;;2111075;28;20498;-55
2021/03/30 05:44:21;;;;;;;7.82;4.55;;;11.80;45.10;;;;;;2106650;28;20052;-56
2021/03/30 05:45:43;;;;;;;7.53;4.50;;;11.80;45.00;;;;;;2112515;28;20112;-57
2021/03/30 05:48:25;;;;;;;7.35;4.60;;;11.80;45.10;;;;;;2108846;28;20050;-56
2021/03/30 05:49:48;;;;;;;7.43;4.43;;;11.80;45.20;;;;;;2112046;28;20024;-57
2021/03/30 05:51:12;;;;;;;7.82;4.68;;;11.80;45.40;;;;;;2110644;28;20027;-57
2021/03/30 05:54:10;;;;;;;8.18;4.80;;;11.90;45.30;;;;;;2111349;28;20039;-57
2021/03/30 05:55:54;;;;;;;8.65;4.50;;;11.90;45.30;;;;;;2107727;28;20030;-57
2021/03/30 05:57:17;;;;;;;6.07;4.53;;;11.90;45.60;;;;;;2111131;28;20114;-57
2021/03/30 05:58:42;;;;;;;8.57;5.18;;;11.90;45.30;;;;;;2109349;28;20032;-56
2021/03/30 06:00:05;;;;;;;8.20;4.45;;;11.90;45.30;;;;;;2112314;28;20463;-57
2021/03/30 06:01:28;;;;;;;7.13;4.55;;;11.90;45.30;;;;;;2104993;28;20043;-56
2021/03/30 06:02:59;;;;;;;6.68;4.50;;;11.90;45.40;;;;;;2110074;28;20115;-56
2021/03/30 06:04:20;;;;;;;7.65;4.65;;;11.90;45.50;;;;;;2107477;28;20437;-57
2021/03/30 06:05:42;;;;;;;6.70;4.57;;;12.00;45.50;;;;;;2111848;28;20344;-56
2021/03/30 06:07:03;;;;;;;6.13;4.85;;;12.00;45.80;;;;;;2104246;28;20048;-57
2021/03/30 06:08:29;;;;;;;8.23;5.03;;;12.00;45.80;;;;;;2106252;28;20070;-57
2021/03/30 06:09:50;;;;;;;7.70;4.65;;;12.00;45.80;;;;;;2111138;28;20028;-57
2021/03/30 06:11:12;;;;;;;8.15;4.70;;;12.00;45.60;;;;;;2112129;28;20480;-57
2021/03/30 06:12:33;;;;;;;9.10;5.00;;;12.00;45.70;;;;;;2111573;28;20049;-56
2021/03/30 06:13:55;;;;;;;8.57;4.85;;;12.00;45.80;;;;;;2112708;28;20042;-56
2021/03/30 06:15:17;;;;;;;7.15;4.50;;;12.10;46.00;;;;;;2105551;28;20466;-57
2021/03/30 06:16:42;;;;;;;7.47;4.90;;;12.10;45.80;;;;;;2108138;28;20084;-57
2021/03/30 06:18:20;;;;;;;9.63;4.88;;;12.10;45.70;;;;;;2112476;28;20433;-56
2021/03/30 06:19:56;;;;;;;8.65;5.00;;;12.10;46.40;;;;;;2109045;28;20378;-57
2021/03/30 06:21:17;;;;;;;10.90;4.38;;;12.10;46.50;;;;;;2111851;28;20015;-56
2021/03/30 06:22:50;;;;;;;9.25;4.40;;;12.20;46.20;;;;;;2100172;28;20067;-57
2021/03/30 06:24:20;;;;;;;6.85;4.47;;;12.20;46.70;;;;;;2110584;28;20056;-55
2021/03/30 06:25:42;;;;;;;6.15;4.57;;;12.20;46.60;;;;;;2109742;28;20496;-57
2021/03/30 06:27:03;;;;;;;7.07;4.65;;;12.20;46.10;;;;;;2110815;28;20031;-58
2021/03/30 06:28:27;;;;;;;8.10;4.15;;;12.20;46.10;;;;;;2105818;28;20036;-57
2021/03/30 06:29:50;;;;;;;8.45;4.55;;;12.20;45.90;;;;;;2111448;28;20081;-57
2021/03/30 06:31:15;;;;;;;8.60;4.57;;;12.30;45.80;;;;;;2111509;28;20031;-57
2021/03/30 06:32:37;;;;;;;9.70;4.97;;;12.30;46.00;;;;;;2107505;28;20579;-59
2021/03/30 06:33:59;;;;;;;7.65;5.18;;;12.30;46.00;;;;;;2108879;28;20083;-57
2021/03/30 06:35:21;;;;;;;9.48;4.95;;;12.40;45.90;;;;;;2106059;28;20031;-58
2021/03/30 06:36:42;;;;;;;8.18;5.00;;;12.30;45.50;;;;;;2110972;28;20684;-55
2021/03/30 06:38:03;;;;;;;6.72;4.65;;;12.40;45.60;;;;;;2112405;28;22100;-58
2021/03/30 06:39:36;;;;;;;10.80;5.20;;;12.40;45.50;;;;;;2111843;28;20031;-57
2021/03/30 06:40:57;;;;;;;8.38;4.85;;;12.40;45.30;;;;;;2109671;28;20019;-57
2021/03/30 06:42:29;;;;;;;11.00;5.00;;;12.50;45.10;;;;;;2111780;28;20055;-57
2021/03/30 06:45:46;;;;;;;8.32;5.03;;;12.60;45.70;;;;;;2108528;28;20060;-57
2021/03/30 06:47:08;;;;;;;11.27;5.07;;;12.60;45.30;;;;;;2112178;28;20651;-57
2021/03/30 06:48:30;;;;;;;9.77;5.20;;;12.60;45.20;;;;;;2108545;28;20483;-58
2021/03/30 06:49:58;;;;;;;8.60;5.65;;;12.70;45.20;;;;;;2109660;28;20366;-57
2021/03/30 06:51:20;;;;;;;8.95;5.63;;;12.70;45.20;;;;;;2112533;28;20172;-58
2021/03/30 06:52:41;;;;;;;10.40;5.95;;;12.70;45.10;;;;;;2110463;28;20038;-58
2021/03/30 06:54:08;;;;;;;11.13;5.60;;;12.70;45.00;;;;;;2112386;28;20100;-56
2021/03/30 06:55:30;;;;;;;11.50;5.25;;;12.80;45.10;;;;;;2105601;28;20035;-58
2021/03/30 06:56:58;;;;;;;8.93;4.90;;;12.80;44.80;;;;;;2111627;28;20059;-58
2021/03/30 06:58:23;;;;;;;6.70;4.82;;;12.80;44.70;;;;;;2111110;28;20325;-58
2021/03/30 06:59:44;;;;;;;6.57;4.90;;;12.90;44.60;;;;;;2109602;28;20027;-58
2021/03/30 07:01:05;;;;;;;9.05;5.55;;;12.90;44.60;;;;;;2110813;28;20038;-58
2021/03/30 07:02:29;;;;;;;8.15;5.30;;;13.00;44.70;;;;;;2106447;28;20032;-57
2021/03/30 07:03:50;;;;;;;6.38;4.60;;;13.00;44.70;;;;;;2110352;28;20040;-59
2021/03/30 07:05:24;;;;;;;8.88;5.00;;;13.10;44.80;;;;;;2110310;28;20035;-58
2021/03/30 07:06:53;;;;;;;8.25;5.38;;;13.10;45.00;;;;;;2112236;28;20490;-57
2021/03/30 07:08:23;;;;;;;7.30;4.97;;;13.20;45.00;;;;;;2112008;28;20027;-58
2021/03/30 07:09:44;;;;;;;10.35;5.57;;;13.20;45.00;;;;;;2110791;28;20102;-58
2021/03/30 07:11:05;;;;;;;11.63;5.93;;;13.30;44.90;;;;;;2110359;28;20031;-58
2021/03/30 07:12:27;;;;;;;9.40;5.50;;;13.30;44.90;;;;;;2106524;28;20032;-58
2021/03/30 07:13:48;;;;;;;12.93;5.88;;;13.30;44.90;;;;;;2110611;28;20089;-58
2021/03/30 07:15:10;;;;;;;11.20;5.60;;;13.40;44.90;;;;;;2110409;28;20047;-57
2021/03/30 07:16:36;;;;;;;8.18;5.22;;;13.40;44.90;;;;;;2110791;28;20510;-59
2021/03/30 07:18:06;;;;;;;8.13;5.45;;;13.50;45.00;;;;;;2112348;28;20107;-58
2021/03/30 07:19:31;;;;;;;9.45;5.25;;;13.50;45.00;;;;;;2106711;28;20048;-58